Time;durP1;ratioP1;P1;durP2;ratioP2;P2;SDS_P1;SDS_P2;PMS_P1;PMS_P2;Temp;Humidity;BMP_temperature;BMP_pressure;BME280_temperature;BME280_humidity;BME280_pressure;Samples;Min_cycle;Max_cycle;Signal;HPM_P1;HPM_P2
2023/07/18 00:00:51;;;;;;;;;4.75;4.75;;;;;31.00;28.51;101245.44;5113080;27;45475;-70
2023/07/18 00:03:17;;;;;;;;;4.75;4.25;;;;;30.94;28.17;101243.47;5097843;27;45773;-69
2023/07/18 00:05:42;;;;;;;;;3.75;3.75;;;;;30.95;28.28;101245.16;5098093;27;46338;-68
2023/07/18 00:08:08;;;;;;;;;3.25;3.25;;;;;30.87;28.52;101237.06;5099627;27;45367;-69
2023/07/18 00:10:33;;;;;;;;;3.00;3.00;;;;;30.64;28.49;101204.44;5099992;27;45363;-69
2023/07/18 00:12:59;;;;;;;;;5.00;5.00;;;;;30.87;28.18;101247.91;5099697;27;45468;-69
2023/07/18 00:15:25;;;;;;;;;7.25;6.50;;;;;30.86;28.68;101246.22;5099109;27;45455;-69
2023/07/18 00:17:50;;;;;;;;;2.00;2.00;;;;;30.80;28.11;101244.25;5099545;27;45275;-68
2023/07/18 00:20:18;;;;;;;;;4.00;4.00;;;;;30.69;28.37;101229.19;5099355;27;45399;-73
2023/07/18 00:22:49;;;;;;;;;1.75;1.75;;;;;30.83;28.56;101243.88;5099586;27;45566;-72
2023/07/18 00:25:19;;;;;;;;;2.00;2.00;;;;;30.79;28.54;101245.25;5097993;27;46374;-68
2023/07/18 00:27:53;;;;;;;;;4.00;4.00;;;;;30.81;28.61;101246.75;5098061;27;45346;-67
2023/07/18 00:30:20;;;;;;;;;2.00;2.00;;;;;30.62;28.42;101228.22;5097693;27;45325;-69
2023/07/18 00:32:46;;;;;;;;;2.00;2.00;;;;;30.64;29.02;101245.16;5098192;27;45594;-68
2023/07/18 00:35:16;;;;;;;;;3.50;3.50;;;;;30.67;28.75;101237.50;5097523;27;45364;-67
2023/07/18 00:37:42;;;;;;;;;3.75;3.00;;;;;30.61;28.50;101230.06;5113275;27;45281;-71
2023/07/18 00:40:10;;;;;;;;;3.00;3.00;;;;;30.68;28.54;101230.22;5113881;27;45263;-73
2023/07/18 00:42:43;;;;;;;;;3.00;3.00;;;;;30.71;28.86;101229.84;5101318;27;45471;-70
2023/07/18 00:45:09;;;;;;;;;3.75;3.75;;;;;30.65;28.40;101225.97;5099574;27;46317;-70
2023/07/18 00:47:37;;;;;;;;;1.25;1.25;;;;;30.67;28.39;101228.53;5097997;27;45389;-68
2023/07/18 00:50:08;;;;;;;;;2.50;2.50;;;;;30.60;28.75;101212.09;5113036;27;45376;-67
2023/07/18 00:52:40;;;;;;;;;2.75;2.75;;;;;30.58;28.59;101227.69;5113673;27;45348;-68
2023/07/18 00:55:09;;;;;;;;;2.00;2.00;;;;;30.48;28.76;101221.63;5116687;27;46171;-71
2023/07/18 00:57:36;;;;;;;;;2.00;2.00;;;;;30.44;28.61;101218.44;5096480;27;46221;-69
2023/07/18 01:00:01;;;;;;;;;3.25;3.25;;;;;30.41;28.59;101216.91;5113676;27;45451;-68
2023/07/18 01:02:28;;;;;;;;;3.00;3.00;;;;;30.28;28.58;101213.94;5097874;27;45377;-68
2023/07/18 01:04:54;;;;;;;;;2.00;2.00;;;;;30.19;28.85;101217.72;5097333;27;46169;-67
2023/07/18 01:07:20;;;;;;;;;2.00;2.00;;;;;30.08;28.92;101214.38;5097973;27;45324;-69
2023/07/18 01:09:47;;;;;;;;;2.75;2.75;;;;;30.05;29.40;101214.72;5113857;27;45548;-67
2023/07/18 01:12:12;;;;;;;;;2.75;2.75;;;;;30.12;28.46;101210.28;5097362;27;45555;-71
2023/07/18 01:14:37;;;;;;;;;3.00;3.00;;;;;29.97;29.33;101202.00;5097284;27;45342;-69
2023/07/18 01:17:05;;;;;;;;;3.00;3.00;;;;;29.98;29.17;101211.00;5097589;27;70953;-67
2023/07/18 01:19:31;;;;;;;;;2.00;2.00;;;;;29.90;29.18;101214.56;5098694;27;45417;-67
2023/07/18 01:21:56;;;;;;;;;1.00;1.00;;;;;29.90;29.23;101216.44;5097073;27;45455;-69
2023/07/18 01:24:22;;;;;;;;;3.00;3.00;;;;;30.03;28.99;101203.19;5096849;27;70279;-69
2023/07/18 01:26:47;;;;;;;;;2.00;2.00;;;;;30.05;29.20;101203.88;5097264;27;45414;-70
2023/07/18 01:29:13;;;;;;;;;2.25;2.25;;;;;30.06;28.84;101202.84;5098073;27;45364;-73
2023/07/18 01:31:38;;;;;;;;;2.00;2.00;;;;;30.04;28.74;101210.31;5097290;27;45264;-69
2023/07/18 01:34:04;;;;;;;;;2.25;2.25;;;;;30.01;28.67;101203.34;5095309;27;63236;-71
2023/07/18 01:36:30;;;;;;;;;2.00;2.00;;;;;30.06;28.49;101210.13;5112548;27;45511;-71
2023/07/18 01:38:55;;;;;;;;;2.00;2.00;;;;;30.06;29.01;101205.56;5095722;27;45476;-69
2023/07/18 01:41:20;;;;;;;;;2.00;2.00;;;;;30.17;28.54;101209.72;5097496;27;45401;-70
2023/07/18 01:43:45;;;;;;;;;4.50;4.50;;;;;30.13;28.73;101216.53;5096388;27;62285;-70
2023/07/18 01:46:11;;;;;;;;;2.00;2.00;;;;;30.04;28.74;101204.88;5096218;27;59019;-71
2023/07/18 01:48:36;;;;;;;;;2.50;2.50;;;;;30.03;28.88;101205.91;5096946;27;45391;-71
2023/07/18 01:51:02;;;;;;;;;2.00;2.00;;;;;30.00;28.71;101203.56;5097903;27;45535;-70
2023/07/18 01:53:28;;;;;;;;;2.00;2.00;;;;;29.97;28.72;101201.16;5097529;27;46840;-73
2023/07/18 01:55:54;;;;;;;;;2.00;2.00;;;;;29.88;29.06;101184.91;5096498;27;45265;-70
2023/07/18 01:58:19;;;;;;;;;2.00;2.00;;;;;29.91;28.57;101188.31;5097106;27;45343;-71
2023/07/18 02:00:45;;;;;;;;;2.75;2.75;;;;;29.91;28.93;101188.31;5097059;27;45202;-69
2023/07/18 02:03:12;;;;;;;;;1.75;1.75;;;;;29.82;29.17;101185.63;5096389;27;45338;-68
2023/07/18 02:05:38;;;;;;;;;2.00;2.00;;;;;29.77;28.94;101179.88;5111978;27;45366;-69
2023/07/18 02:08:03;;;;;;;;;1.25;1.25;;;;;29.80;29.13;101174.09;5096435;27;45294;-67
2023/07/18 02:10:28;;;;;;;;;1.00;1.00;;;;;29.77;29.20;101177.16;5096731;27;45329;-68
2023/07/18 02:12:57;;;;;;;;;2.00;2.00;;;;;29.76;29.30;101169.19;5096937;27;46462;-70
2023/07/18 02:15:23;;;;;;;;;2.75;2.75;;;;;29.82;28.60;101173.91;5096942;27;45234;-68
2023/07/18 02:17:48;;;;;;;;;2.00;2.00;;;;;29.84;29.07;101177.28;5099651;27;45186;-68
2023/07/18 02:20:14;;;;;;;;;1.50;1.50;;;;;29.78;28.82;101170.72;5098576;27;45622;-72
2023/07/18 02:22:42;;;;;;;;;1.50;1.50;;;;;29.74;29.37;101158.53;5098228;27;46109;-68
2023/07/18 02:25:08;;;;;;;;;2.00;2.00;;;;;29.74;29.02;101163.97;5097987;27;45301;-68
2023/07/18 02:27:35;;;;;;;;;1.00;1.00;;;;;29.69;28.74;101145.50;5112621;27;45480;-67
2023/07/18 02:30:01;;;;;;;;;2.00;2.00;;;;;29.74;28.93;101147.69;5096447;27;45325;-69
2023/07/18 02:32:30;;;;;;;;;1.00;1.00;;;;;29.77;28.53;101141.91;5095823;27;45501;-67
2023/07/18 02:34:55;;;;;;;;;2.00;2.00;;;;;29.66;29.21;101148.56;5097740;27;45602;-68
2023/07/18 02:37:23;;;;;;;;;1.75;1.75;;;;;29.65;28.79;101141.44;5096823;27;45259;-70
2023/07/18 02:39:48;;;;;;;;;1.75;1.75;;;;;29.68;28.85;101151.06;5096324;27;45512;-71
2023/07/18 02:42:14;;;;;;;;;2.00;2.00;;;;;29.62;28.92;101149.91;5095834;27;45457;-67
2023/07/18 02:44:39;;;;;;;;;2.00;2.00;;;;;29.65;28.55;101146.00;5095648;27;54290;-69
2023/07/18 02:47:05;;;;;;;;;2.00;2.00;;;;;29.53;29.18;101140.94;5100474;27;45354;-68
2023/07/18 02:49:30;;;;;;;;;1.25;1.25;;;;;29.50;28.53;101146.72;5101455;27;45404;-71
2023/07/18 02:51:55;;;;;;;;;1.50;1.50;;;;;29.55;29.00;101146.22;5100710;27;45860;-71
2023/07/18 02:54:21;;;;;;;;;2.00;2.00;;;;;29.46;29.53;101133.72;5099912;27;57759;-68
2023/07/18 02:56:46;;;;;;;;;1.75;1.75;;;;;29.46;29.42;101137.25;5115945;27;53661;-69
2023/07/18 02:59:12;;;;;;;;;2.00;2.00;;;;;29.06;28.94;101069.41;5100727;27;45218;-69
2023/07/18 03:01:38;;;;;;;;;1.25;1.25;;;;;29.48;29.42;101126.25;5100050;27;46107;-70
2023/07/18 03:04:05;;;;;;;;;2.00;2.00;;;;;29.43;29.58;101133.03;5100257;27;45337;-71
2023/07/18 03:06:30;;;;;;;;;2.50;2.50;;;;;29.39;29.13;101130.84;5100383;27;45395;-73
2023/07/18 03:08:55;;;;;;;;;3.25;3.25;;;;;29.34;29.80;101127.75;5100349;27;45456;-71
2023/07/18 03:11:20;;;;;;;;;2.75;2.75;;;;;29.35;29.22;101118.63;5099903;27;45334;-72
2023/07/18 03:13:46;;;;;;;;;1.75;1.75;;;;;29.25;29.39;101108.81;5100210;27;47684;-70
2023/07/18 03:16:11;;;;;;;;;2.00;2.00;;;;;29.27;29.22;101112.19;5100104;27;45346;-69
2023/07/18 03:18:37;;;;;;;;;2.00;2.00;;;;;29.30;29.45;101111.03;5100466;27;45576;-70
2023/07/18 03:21:03;;;;;;;;;2.00;2.00;;;;;29.29;29.69;101110.16;5100041;27;45419;-69
2023/07/18 03:23:29;;;;;;;;;3.25;3.25;;;;;29.25;29.50;101108.00;5099857;27;45413;-69
2023/07/18 03:25:55;;;;;;;;;2.00;2.00;;;;;29.22;29.42;101108.34;5100260;27;45331;-69
2023/07/18 03:28:21;;;;;;;;;3.00;3.00;;;;;29.22;29.76;101108.34;5100437;27;45330;-69
2023/07/18 03:30:46;;;;;;;;;3.00;3.00;;;;;28.97;29.75;101076.72;5100325;27;47099;-70
2023/07/18 03:33:12;;;;;;;;;2.75;2.75;;;;;28.77;29.76;101108.69;5100554;27;45320;-71
2023/07/18 03:35:38;;;;;;;;;3.25;3.25;;;;;28.58;30.56;101116.09;5100092;27;45293;-73
2023/07/18 03:38:03;;;;;;;;;3.00;3.00;;;;;28.50;30.48;101107.13;5100326;27;45447;-71
2023/07/18 03:40:29;;;;;;;;;3.25;3.25;;;;;28.56;30.55;101119.97;5100381;27;45667;-70
2023/07/18 03:42:54;;;;;;;;;3.00;3.00;;;;;28.62;30.08;101108.47;5101513;27;45179;-69
2023/07/18 03:45:20;;;;;;;;;3.25;3.25;;;;;28.61;30.17;101112.19;5100205;27;45354;-71
2023/07/18 03:47:45;;;;;;;;;2.00;2.00;;;;;28.55;30.50;101105.63;5100435;27;45635;-72
2023/07/18 03:50:13;;;;;;;;;1.00;1.00;;;;;28.63;30.35;101104.78;5100079;27;45260;-70
2023/07/18 03:52:38;;;;;;;;;2.00;2.00;;;;;28.53;30.28;101104.94;5101859;27;45400;-69
2023/07/18 03:55:04;;;;;;;;;2.00;2.00;;;;;28.54;30.89;101106.63;5100558;27;45343;-70
2023/07/18 03:57:30;;;;;;;;;2.00;2.00;;;;;28.57;30.56;101100.88;5099298;27;45558;-66
2023/07/18 03:59:56;;;;;;;;;1.75;1.75;;;;;28.58;30.52;101089.03;5115763;27;46409;-70
2023/07/18 04:02:21;;;;;;;;;2.00;2.00;;;;;28.51;30.26;101097.97;5099771;27;45278;-69
2023/07/18 04:04:46;;;;;;;;;3.75;3.00;;;;;28.41;30.29;101087.34;5102677;27;44699;-68
2023/07/18 04:07:11;;;;;;;;;2.00;2.00;;;;;28.40;30.04;101091.06;5118628;27;45341;-72
2023/07/18 04:09:37;;;;;;;;;3.00;3.00;;;;;28.43;30.61;101094.25;5101639;27;45361;-67
2023/07/18 04:12:03;;;;;;;;;4.50;4.50;;;;;28.45;30.34;101091.41;5115341;27;45309;-69
2023/07/18 04:14:28;;;;;;;;;2.50;2.50;;;;;28.49;30.52;101092.75;5100591;27;45214;-68
2023/07/18 04:16:53;;;;;;;;;2.75;2.75;;;;;28.47;30.36;101088.50;5099021;27;45273;-69
2023/07/18 04:19:19;;;;;;;;;3.00;3.00;;;;;28.51;29.90;101092.56;5098439;27;45322;-68
2023/07/18 04:21:44;;;;;;;;;4.00;4.00;;;;;28.47;30.72;101072.28;5099056;27;45254;-69
2023/07/18 04:24:10;;;;;;;;;2.00;2.00;;;;;28.54;29.91;101076.00;5097718;27;45301;-71
2023/07/18 04:26:36;;;;;;;;;3.00;3.00;;;;;28.46;30.41;101076.84;5100357;27;45509;-70
2023/07/18 04:29:05;;;;;;;;;3.00;3.00;;;;;28.58;29.88;101080.06;5098948;27;46122;-69
2023/07/18 04:31:30;;;;;;;;;2.00;2.00;;;;;28.53;29.65;101074.31;5099477;27;45386;-70
2023/07/18 04:33:55;;;;;;;;;2.75;2.75;;;;;28.53;29.64;101068.91;5098996;27;45270;-69
2023/07/18 04:36:21;;;;;;;;;3.25;3.25;;;;;28.49;30.07;101065.69;5099467;27;45427;-69
2023/07/18 04:38:46;;;;;;;;;3.50;3.50;;;;;28.53;30.49;101060.78;5098066;27;54299;-69
2023/07/18 04:41:11;;;;;;;;;2.75;2.75;;;;;28.61;29.85;101059.94;5098370;27;45256;-68
2023/07/18 04:43:37;;;;;;;;;2.00;2.00;;;;;28.61;30.21;101057.25;5098901;27;45234;-68
2023/07/18 04:46:04;;;;;;;;;2.00;2.00;;;;;28.68;29.78;101058.25;5098224;27;48856;-70
2023/07/18 04:48:29;;;;;;;;;3.00;3.00;;;;;28.68;30.10;101051.00;5100405;27;45356;-71
2023/07/18 04:51:01;;;;;;;;;2.50;2.50;;;;;28.81;29.79;101055.06;5099015;27;45325;-67
2023/07/18 04:53:28;;;;;;;;;3.00;3.00;;;;;28.76;29.81;101039.31;5113877;27;45252;-66
2023/07/18 04:55:57;;;;;;;;;3.00;3.00;;;;;28.75;29.65;101039.50;5113643;27;45216;-66
2023/07/18 04:58:24;;;;;;;;;4.00;4.00;;;;;28.87;29.43;101048.97;5098330;27;46447;-68
2023/07/18 05:00:51;;;;;;;;;6.75;6.75;;;;;28.92;29.27;101043.88;5098282;27;45447;-70
2023/07/18 05:03:17;;;;;;;;;2.75;2.75;;;;;28.98;28.95;101029.66;5096925;27;45379;-70
2023/07/18 05:05:42;;;;;;;;;3.25;3.25;;;;;29.10;29.32;101029.28;5098618;27;45157;-67
2023/07/18 05:08:07;;;;;;;;;3.00;3.00;;;;;29.18;29.49;101037.41;5099526;27;45196;-68
2023/07/18 05:10:33;;;;;;;;;4.00;4.00;;;;;29.26;29.26;101029.25;5099572;27;45225;-67
2023/07/18 05:12:58;;;;;;;;;3.50;3.50;;;;;29.35;29.26;101023.78;5097955;27;45159;-68
2023/07/18 05:15:24;;;;;;;;;3.00;3.00;;;;;29.49;28.84;101012.25;5097494;27;47307;-69
2023/07/18 05:17:50;;;;;;;;;2.75;2.75;;;;;29.58;28.17;101007.66;5097229;27;45369;-70
2023/07/18 05:20:15;;;;;;;;;2.25;2.25;;;;;29.81;28.52;101010.41;5097393;27;45243;-71
2023/07/18 05:22:43;;;;;;;;;3.00;3.00;;;;;30.03;28.25;101018.78;5097689;27;45312;-68
2023/07/18 05:25:12;;;;;;;;;4.00;4.00;;;;;30.05;27.94;101016.72;5097989;27;45317;-67
2023/07/18 05:27:39;;;;;;;;;3.00;3.00;;;;;30.06;27.85;101029.25;5097648;27;45323;-70
2023/07/18 05:30:06;;;;;;;;;5.00;5.00;;;;;30.09;27.57;101031.59;5116263;27;45585;-72
2023/07/18 05:32:32;;;;;;;;;4.00;4.00;;;;;30.04;27.67;101031.31;5099749;27;45520;-69
2023/07/18 05:35:00;;;;;;;;;3.00;3.00;;;;;30.21;27.19;101033.91;5098273;27;45704;-68
2023/07/18 05:37:28;;;;;;;;;3.00;3.00;;;;;30.15;27.41;101032.75;5097413;27;46055;-69
2023/07/18 05:39:54;;;;;;;;;4.75;4.75;;;;;30.09;27.79;101023.47;5113287;27;45294;-71
2023/07/18 05:42:19;;;;;;;;;2.75;2.75;;;;;30.05;27.44;101022.16;5098137;27;45164;-70
2023/07/18 05:44:44;;;;;;;;;4.50;4.50;;;;;30.10;27.44;101024.31;5098176;27;45610;-71
2023/07/18 05:47:10;;;;;;;;;2.50;2.50;;;;;30.17;27.26;101028.84;5097625;27;55462;-69
2023/07/18 05:49:35;;;;;;;;;3.00;3.00;;;;;30.22;27.61;101028.31;5098368;27;45280;-72
2023/07/18 05:52:01;;;;;;;;;3.00;3.00;;;;;30.28;27.38;101024.00;5098324;27;45187;-68
2023/07/18 05:54:26;;;;;;;;;2.00;2.00;;;;;30.36;26.93;101034.78;5098082;27;45473;-70
2023/07/18 05:56:51;;;;;;;;;2.25;2.25;;;;;30.49;26.72;101031.47;5097740;27;45398;-73
2023/07/18 05:59:17;;;;;;;;;3.00;3.00;;;;;30.50;26.71;101029.59;5097204;27;45451;-68
2023/07/18 06:01:43;;;;;;;;;3.50;3.50;;;;;30.46;26.85;101024.53;5097059;27;45406;-67
2023/07/18 06:04:10;;;;;;;;;3.00;3.00;;;;;30.33;26.69;101013.47;5113183;27;45432;-71
2023/07/18 06:06:36;;;;;;;;;2.00;2.00;;;;;30.26;26.98;101034.19;5097020;27;47481;-68
2023/07/18 06:09:01;;;;;;;;;4.50;4.50;;;;;30.11;27.18;101026.84;5096408;27;45386;-66
2023/07/18 06:11:26;;;;;;;;;3.00;3.00;;;;;30.12;26.63;101016.81;5096593;27;45238;-67
2023/07/18 06:13:52;;;;;;;;;3.00;3.00;;;;;30.14;27.21;101031.91;5096469;27;45660;-65
2023/07/18 06:16:17;;;;;;;;;4.75;4.75;;;;;30.31;26.97;101037.22;5097351;27;45992;-66
2023/07/18 06:18:42;;;;;;;;;2.75;2.75;;;;;30.32;26.36;101033.47;5097792;27;45464;-68
2023/07/18 06:21:08;;;;;;;;;2.00;2.00;;;;;30.30;26.67;101030.09;5095296;27;45459;-64
2023/07/18 06:23:34;;;;;;;;;1.00;1.00;;;;;30.29;26.33;101010.28;5099300;27;45282;-66
2023/07/18 06:25:59;;;;;;;;;2.50;2.50;;;;;30.43;26.13;101030.31;5117390;27;46344;-69
2023/07/18 06:28:25;;;;;;;;;2.00;2.00;;;;;30.45;26.22;101019.31;5101815;27;45240;-70
2023/07/18 06:30:54;;;;;;;;;2.00;2.00;;;;;30.74;26.21;101037.53;5099598;27;45385;-64
2023/07/18 06:33:20;;;;;;;;;2.00;2.00;;;;;30.94;25.81;101036.19;5093024;27;45456;-68
2023/07/18 06:35:57;;;;;;;;;11.00;11.00;;;;;31.37;25.94;101050.00;5093806;27;45640;-65
2023/07/18 06:38:23;;;;;;;;;4.25;4.25;;;;;31.48;24.85;101054.97;5093204;27;45200;-65
2023/07/18 06:40:52;;;;;;;;;2.00;2.00;;;;;31.82;24.92;101060.00;5105733;27;45245;-70
2023/07/18 06:43:17;;;;;;;;;3.00;3.00;;;;;31.97;24.68;101051.81;5082354;27;45502;-68
2023/07/18 06:45:44;;;;;;;;;3.25;3.25;;;;;32.17;24.52;101052.84;5075924;27;45400;-68
2023/07/18 06:48:10;;;;;;;;;2.00;2.00;;;;;32.46;24.08;101077.47;5074544;27;45924;-66
2023/07/18 06:50:36;;;;;;;;;2.25;2.25;;;;;32.84;24.27;101089.91;5085621;27;45369;-67
2023/07/18 06:53:02;;;;;;;;;6.00;4.00;;;;;33.19;23.58;101084.53;5098593;27;45219;-69
2023/07/18 06:55:27;;;;;;;;;3.00;3.00;;;;;33.38;24.18;101069.31;5094993;27;47415;-69
2023/07/18 06:57:52;;;;;;;;;3.00;3.00;;;;;33.51;23.83;101071.31;5082044;27;45375;-66
2023/07/18 07:00:19;;;;;;;;;3.00;3.00;;;;;33.63;22.88;101060.69;5096493;27;45307;-67
2023/07/18 07:02:45;;;;;;;;;3.25;3.25;;;;;33.72;23.56;101064.91;5094962;27;45480;-67
2023/07/18 07:05:10;;;;;;;;;5.50;5.50;;;;;33.94;22.97;101078.44;5098076;27;46109;-70
2023/07/18 07:07:35;;;;;;;;;4.00;4.00;;;;;34.05;23.23;101086.03;5089147;27;44821;-70
2023/07/18 07:10:01;;;;;;;;;2.25;2.25;;;;;34.29;22.97;101077.47;5089856;27;45330;-71
2023/07/18 07:12:27;;;;;;;;;4.75;4.75;;;;;34.39;22.63;101091.56;5089757;27;45484;-70
2023/07/18 07:14:52;;;;;;;;;1.50;1.50;;;;;34.33;22.69;101086.94;5089886;27;46161;-69
2023/07/18 07:17:17;;;;;;;;;2.75;2.75;;;;;34.37;22.47;101077.28;5080117;27;45312;-68
2023/07/18 07:19:44;;;;;;;;;1.00;1.00;;;;;34.22;22.51;101061.94;5088834;27;45425;-71
2023/07/18 07:22:11;;;;;;;;;3.00;3.00;;;;;34.40;22.53;101049.56;5076539;27;45513;-68
2023/07/18 07:24:37;;;;;;;;;2.50;2.50;;;;;34.39;22.54;101053.34;5089983;27;46811;-69
2023/07/18 07:27:05;;;;;;;;;4.75;4.75;;;;;34.56;22.52;101074.81;5093030;27;45432;-70
2023/07/18 07:29:30;;;;;;;;;3.00;3.00;;;;;34.58;22.45;101097.28;5092748;27;45411;-69
2023/07/18 07:31:56;;;;;;;;;2.00;2.00;;;;;34.60;22.38;101100.63;5093474;27;45387;-68
2023/07/18 07:34:21;;;;;;;;;3.00;3.00;;;;;34.59;22.54;101094.34;5112629;27;47518;-69
2023/07/18 07:36:46;;;;;;;;;2.50;2.50;;;;;34.64;22.60;101085.50;5097882;27;45539;-69
2023/07/18 07:39:13;;;;;;;;;2.50;2.50;;;;;34.76;22.49;101080.28;5098710;27;45334;-69
2023/07/18 07:41:38;;;;;;;;;2.25;2.25;;;;;34.99;22.56;101059.88;5099122;27;45425;-69
2023/07/18 07:44:04;;;;;;;;;1.50;1.50;;;;;35.17;22.10;101049.09;5114275;27;45799;-69
2023/07/18 07:46:29;;;;;;;;;6.50;5.75;;;;;35.30;21.99;101022.78;5093835;27;45382;-68
2023/07/18 07:48:55;;;;;;;;;7.00;7.00;;;;;35.21;21.94;100978.44;5114307;27;45373;-69
2023/07/18 07:51:22;;;;;;;;;5.25;5.25;;;;;35.10;21.70;100958.09;5098535;27;45527;-68
2023/07/18 07:53:47;;;;;;;;;4.50;4.50;;;;;35.06;22.06;100922.16;5099004;27;46740;-68
2023/07/18 07:56:12;;;;;;;;;3.50;3.50;;;;;35.03;22.01;100906.19;5099019;27;45206;-68
2023/07/18 07:58:38;;;;;;;;;4.50;4.50;;;;;35.06;22.26;100899.44;5098404;27;45479;-72
2023/07/18 08:01:03;;;;;;;;;3.50;3.00;;;;;35.02;22.11;100855.31;5098848;27;45530;-71
2023/07/18 08:03:28;;;;;;;;;3.75;3.75;;;;;35.11;22.21;100855.91;5098388;27;46129;-70
2023/07/18 08:05:54;;;;;;;;;5.00;5.00;;;;;35.19;21.87;100865.75;5097437;27;69224;-68
2023/07/18 08:08:19;;;;;;;;;3.75;3.75;;;;;35.05;22.19;100873.16;5098421;27;45798;-70
2023/07/18 08:10:45;;;;;;;;;2.00;2.00;;;;;34.99;22.31;100855.72;5097119;27;45699;-69
2023/07/18 08:13:10;;;;;;;;;4.50;4.50;;;;;35.08;22.23;100846.25;5098323;27;46499;-69
2023/07/18 08:15:35;;;;;;;;;4.00;4.00;;;;;35.18;22.36;100843.03;5097921;27;45475;-70
2023/07/18 08:18:01;;;;;;;;;4.00;4.00;;;;;35.29;22.29;100849.69;5098261;27;45283;-69
2023/07/18 08:20:31;;;;;;;;;5.50;5.00;;;;;35.47;21.87;100846.19;5097905;27;45221;-69
2023/07/18 08:22:57;;;;;;;;;8.00;8.00;;;;;35.44;22.35;100826.66;5097709;27;46880;-69
2023/07/18 08:25:22;;;;;;;;;13.75;13.75;;;;;35.45;21.99;100803.72;5097525;27;45348;-71
2023/07/18 08:27:48;;;;;;;;;3.00;3.00;;;;;35.52;22.07;100819.06;5097603;27;45243;-69
2023/07/18 08:30:13;;;;;;;;;5.50;5.50;;;;;35.73;22.22;100835.31;5097973;27;47766;-70
2023/07/18 08:32:40;;;;;;;;;3.75;3.75;;;;;35.96;22.20;100851.09;5097637;27;46313;-70
2023/07/18 08:35:06;;;;;;;;;0.50;0.50;;;;;36.03;22.04;100868.34;5113443;27;45286;-70
2023/07/18 08:37:31;;;;;;;;;5.25;5.25;;;;;36.14;22.11;100885.09;5089167;27;45547;-69
2023/07/18 08:39:58;;;;;;;;;2.75;2.75;;;;;36.20;21.76;100884.19;5080346;27;45497;-69
2023/07/18 08:42:26;;;;;;;;;3.25;3.25;;;;;36.52;21.78;100904.09;5076903;27;45389;-69
2023/07/18 08:44:53;;;;;;;;;26.75;26.75;;;;;36.68;21.64;100915.53;5076833;27;45381;-68
2023/07/18 08:47:22;;;;;;;;;6.50;6.50;;;;;36.77;21.54;100916.06;5076299;27;45312;-70
2023/07/18 08:49:48;;;;;;;;;4.25;4.25;;;;;36.86;21.22;100922.06;5077239;27;45634;-68
2023/07/18 08:52:13;;;;;;;;;2.00;2.00;;;;;37.01;21.20;100933.50;5075639;28;47260;-69
2023/07/18 08:54:39;;;;;;;;;3.25;3.25;;;;;37.01;20.74;100936.25;5076565;27;45484;-69
2023/07/18 08:57:05;;;;;;;;;2.25;2.25;;;;;37.10;20.96;100936.78;5076837;28;45376;-68
2023/07/18 08:59:31;;;;;;;;;3.75;3.50;;;;;37.21;20.59;100933.25;5077134;27;45417;-69
2023/07/18 09:01:56;;;;;;;;;2.50;2.50;;;;;37.31;20.63;100934.59;5076674;27;45312;-69
2023/07/18 09:04:22;;;;;;;;;5.25;5.25;;;;;37.38;20.41;100929.84;5075719;27;57540;-69
2023/07/18 09:06:56;;;;;;;;;27.75;27.50;;;;;37.40;20.62;100914.84;5076644;28;45353;-68
2023/07/18 09:09:23;;;;;;;;;2.00;1.50;;;;;37.70;20.59;100922.25;5076868;27;45400;-69
2023/07/18 09:11:59;;;;;;;;;5.00;5.00;;;;;37.70;20.61;100919.50;5076584;28;45357;-71
2023/07/18 09:14:33;;;;;;;;;2.50;2.50;;;;;37.86;20.50;100925.38;5075484;28;45267;-69
2023/07/18 09:17:01;;;;;;;;;3.50;3.50;;;;;38.00;20.28;100926.03;5076537;27;45261;-70
2023/07/18 09:19:37;;;;;;;;;4.25;4.25;;;;;37.97;20.08;100921.84;5076592;27;45455;-70
2023/07/18 09:22:04;;;;;;;;;4.25;4.25;;;;;37.95;20.17;100923.16;5075982;28;46270;-70
2023/07/18 09:24:31;;;;;;;;;2.50;2.50;;;;;37.96;20.16;100909.19;5076193;27;45559;-68
2023/07/18 09:26:56;;;;;;;;;1.75;1.75;;;;;38.20;19.85;100911.97;5074718;28;45358;-67
2023/07/18 09:29:22;;;;;;;;;3.75;3.75;;;;;38.09;20.14;100913.63;5076238;28;45334;-70
2023/07/18 09:31:49;;;;;;;;;2.25;2.25;;;;;38.09;19.89;100908.13;5076642;27;46264;-70
2023/07/18 09:34:18;;;;;;;;;5.00;5.00;;;;;38.12;20.12;100907.66;5078819;27;45309;-69
2023/07/18 09:37:01;;;;;;;;;3.00;2.75;;;;;38.27;19.79;100906.31;5077110;27;45327;-70
2023/07/18 09:39:27;;;;;;;;;3.00;3.00;;;;;38.33;19.72;100897.13;5076928;27;45631;-70
2023/07/18 09:41:54;;;;;;;;;6.00;6.00;;;;;38.48;19.46;100899.41;5077404;27;46224;-69
2023/07/18 09:44:22;;;;;;;;;3.00;3.00;;;;;38.45;19.55;100907.28;5077699;27;45410;-70
2023/07/18 09:46:49;;;;;;;;;2.25;2.25;;;;;38.44;19.19;100895.47;5077304;27;45296;-71
2023/07/18 09:49:16;;;;;;;;;4.00;4.00;;;;;38.60;19.48;100893.88;5076580;27;45549;-69
2023/07/18 09:51:47;;;;;;;;;3.75;3.75;;;;;38.81;19.51;100899.84;5076340;27;45472;-69
2023/07/18 09:54:14;;;;;;;;;2.25;2.25;;;;;38.92;19.09;100892.66;5075630;27;45295;-70
2023/07/18 09:56:43;;;;;;;;;3.75;3.75;;;;;39.06;18.73;100887.69;5076385;27;45354;-68
2023/07/18 09:59:09;;;;;;;;;2.50;2.50;;;;;39.07;18.62;100889.38;5076790;27;45468;-70
2023/07/18 10:01:37;;;;;;;;;5.00;5.00;;;;;39.20;18.92;100894.56;5076867;27;45248;-70
2023/07/18 10:04:02;;;;;;;;;2.00;2.00;;;;;39.30;18.86;100882.94;5076171;28;45421;-69
2023/07/18 10:06:29;;;;;;;;;5.00;5.00;;;;;39.32;18.92;100880.75;5075728;27;45315;-69
2023/07/18 10:08:55;;;;;;;;;2.50;2.50;;;;;39.37;18.76;100889.16;5075855;27;45708;-69
2023/07/18 10:11:20;;;;;;;;;4.75;4.00;;;;;39.45;18.83;100890.63;5075698;27;46083;-70
2023/07/18 10:13:54;;;;;;;;;8.75;8.75;;;;;39.67;18.69;100878.88;5076550;27;45332;-70
2023/07/18 10:16:21;;;;;;;;;4.75;4.75;;;;;39.72;18.09;100871.56;5075930;27;45354;-69
2023/07/18 10:18:50;;;;;;;;;6.75;6.75;;;;;39.86;18.68;100874.00;5075894;27;45428;-69
2023/07/18 10:21:31;;;;;;;;;9.25;9.25;;;;;40.05;18.20;100868.22;5075289;28;46529;-70
2023/07/18 10:23:57;;;;;;;;;2.00;2.00;;;;;40.17;17.88;100867.03;5075934;27;45314;-70
2023/07/18 10:26:32;;;;;;;;;5.00;5.00;;;;;40.24;17.76;100850.34;5075968;27;45394;-70
2023/07/18 10:29:03;;;;;;;;;5.00;5.00;;;;;40.12;18.19;100850.44;5075802;27;45518;-68
2023/07/18 10:31:33;;;;;;;;;5.50;5.50;;;;;40.02;18.28;100848.34;5075651;27;47260;-70
2023/07/18 10:34:14;;;;;;;;;5.00;5.00;;;;;39.99;17.78;100829.59;5075016;27;45354;-69
2023/07/18 10:36:40;;;;;;;;;6.75;6.00;;;;;39.76;17.85;100840.78;5075578;27;45245;-70
2023/07/18 10:39:12;;;;;;;;;4.00;4.00;;;;;39.91;17.74;100835.53;5079106;27;45511;-69
2023/07/18 10:41:42;;;;;;;;;2.00;2.00;;;;;39.97;18.00;100830.94;5075074;28;45426;-69
2023/07/18 10:44:17;;;;;;;;;3.75;3.75;;;;;40.08;18.03;100827.25;5073902;28;46031;-69
2023/07/18 10:46:42;;;;;;;;;2.75;2.75;;;;;40.03;18.08;100819.72;5075441;27;45254;-69
2023/07/18 10:49:08;;;;;;;;;4.00;4.00;;;;;40.15;17.88;100810.50;5075067;27;45460;-71
2023/07/18 10:51:34;;;;;;;;;12.00;12.00;;;;;40.31;17.86;100817.09;5074647;28;45453;-69
2023/07/18 10:54:00;;;;;;;;;6.00;6.00;;;;;40.37;17.89;100816.06;5074609;27;45580;-69
2023/07/18 10:56:26;;;;;;;;;2.00;2.00;;;;;40.37;17.37;100818.00;5074668;27;45388;-71
2023/07/18 10:58:52;;;;;;;;;6.50;6.50;;;;;40.37;17.42;100807.00;5073842;27;45534;-70
2023/07/18 11:01:18;;;;;;;;;2.25;2.25;;;;;40.45;17.41;100793.56;5074967;27;45309;-70
2023/07/18 11:03:47;;;;;;;;;4.00;4.00;;;;;40.39;17.06;100805.63;5074851;27;45184;-69
2023/07/18 11:06:16;;;;;;;;;4.50;4.50;;;;;40.22;17.92;100802.06;5075739;27;45489;-71
2023/07/18 11:08:47;;;;;;;;;3.00;3.00;;;;;40.35;17.24;100793.44;5079045;27;45567;-72
2023/07/18 11:11:14;;;;;;;;;4.00;4.00;;;;;40.29;17.34;100800.00;5079169;28;46311;-72
2023/07/18 11:13:43;;;;;;;;;6.75;6.00;;;;;40.30;17.46;100797.00;5078963;27;45535;-71
2023/07/18 11:16:16;;;;;;;;;2.50;2.50;;;;;40.52;17.60;100789.78;5079116;27;45417;-71
2023/07/18 11:18:43;;;;;;;;;3.50;3.50;;;;;40.64;17.54;100790.47;5078954;27;45333;-72
2023/07/18 11:21:10;;;;;;;;;4.00;4.00;;;;;40.79;16.87;100798.13;5077028;28;48262;-72